createdAt,value
2018-11-13T00:01:16.301Z,77.21
2018-11-13T00:03:44.819Z,77.15
2018-11-13T00:06:12.299Z,77.15
2018-11-13T00:08:40.771Z,76.90
2018-11-13T00:11:08.267Z,77.34
2018-11-13T00:13:36.219Z,77.58
2018-11-13T00:16:03.696Z,77.73
2018-11-13T00:18:31.194Z,76.95
2018-11-13T00:21:00.260Z,77.82
2018-11-13T00:23:28.363Z,77.60
2018-11-13T00:25:55.916Z,77.43
2018-11-13T00:28:23.386Z,77.70
2018-11-13T00:30:50.905Z,77.48
2018-11-13T00:33:18.411Z,77.74
2018-11-13T00:35:45.952Z,77.80
2018-11-13T00:38:13.450Z,78.05
2018-11-13T00:40:41.970Z,77.79
2018-11-13T00:43:09.443Z,77.29
2018-11-13T00:45:38.130Z,77.27
2018-11-13T00:48:05.583Z,77.59
2018-11-13T00:50:33.104Z,77.67
2018-11-13T00:53:00.581Z,77.61
2018-11-13T00:55:28.091Z,77.94
2018-11-13T00:57:56.222Z,77.93
2018-11-13T01:00:23.723Z,77.62
2018-11-13T01:02:51.767Z,77.81
2018-11-13T01:05:20.556Z,77.99
2018-11-13T01:07:49.100Z,78.34
2018-11-13T01:10:17.731Z,78.05
2018-11-13T01:12:46.418Z,78.30
2018-11-13T01:15:15.001Z,77.81
2018-11-13T01:17:43.228Z,78.12
2018-11-13T01:20:11.362Z,77.96
2018-11-13T01:22:38.910Z,77.89
2018-11-13T01:25:06.480Z,78.25
2018-11-13T01:27:34.392Z,77.52
2018-11-13T01:30:02.529Z,77.85
2018-11-13T01:32:33.592Z,78.10
2018-11-13T01:35:01.172Z,78.35
2018-11-13T01:37:29.334Z,78.39
2018-11-13T01:39:56.905Z,77.58
2018-11-13T01:42:25.755Z,77.58
2018-11-13T01:44:53.461Z,78.09
2018-11-13T01:47:22.684Z,78.06
2018-11-13T01:49:50.525Z,78.37
2018-11-13T01:52:18.069Z,78.34
2018-11-13T01:54:45.621Z,78.33
2018-11-13T01:57:13.580Z,77.59
2018-11-13T01:59:40.825Z,77.96
2018-11-13T02:02:08.488Z,77.80
2018-11-13T02:04:36.031Z,77.93
2018-11-13T02:07:03.614Z,77.57
2018-11-13T02:09:31.237Z,78.25
2018-11-13T02:11:58.815Z,77.75
2018-11-13T02:14:26.364Z,78.01
2018-11-13T02:16:53.917Z,77.99
2018-11-13T02:19:21.460Z,78.24
2018-11-13T02:21:50.464Z,78.48
2018-11-13T02:24:18.011Z,77.92
2018-11-13T02:26:45.570Z,77.96
2018-11-13T02:29:13.158Z,77.77
2018-11-13T02:31:40.719Z,77.91
2018-11-13T02:34:08.264Z,77.99
2018-11-13T02:36:36.404Z,77.53
2018-11-13T02:39:04.400Z,77.89
2018-11-13T02:41:31.963Z,78.06
2018-11-13T02:43:59.598Z,77.53
2018-11-13T02:46:27.697Z,77.81
2018-11-13T02:48:56.537Z,78.07
2018-11-13T02:51:24.148Z,78.09
2018-11-13T02:53:51.692Z,77.78
2018-11-13T02:56:19.665Z,77.87
2018-11-13T02:58:47.220Z,77.79
2018-11-13T03:01:14.767Z,77.98
2018-11-13T03:03:43.916Z,78.23
2018-11-13T03:06:11.488Z,77.66
2018-11-13T03:08:43.437Z,78.14
2018-11-13T03:11:10.974Z,78.00
2018-11-13T03:13:38.542Z,77.93
2018-11-13T03:16:06.252Z,77.98
2018-11-13T03:18:33.788Z,78.43
2018-11-13T03:21:01.966Z,77.76
2018-11-13T03:23:29.535Z,77.76
2018-11-13T03:25:57.512Z,78.33
2018-11-13T03:28:25.068Z,78.11
2018-11-13T03:30:53.316Z,78.34
2018-11-13T03:33:22.547Z,77.98
2018-11-13T03:35:51.024Z,78.01
2018-11-13T03:38:18.576Z,78.23
2018-11-13T03:40:46.601Z,77.64
2018-11-13T03:43:14.212Z,77.81
2018-11-13T03:45:41.763Z,77.94
2018-11-13T03:48:09.352Z,77.63
2018-11-13T03:50:37.989Z,77.77
2018-11-13T03:53:06.172Z,77.92
2018-11-13T03:55:34.560Z,77.60
2018-11-13T03:58:03.232Z,77.63
2018-11-13T04:00:31.393Z,78.11
2018-11-13T04:02:58.928Z,77.89
2018-11-13T04:05:26.488Z,78.32
2018-11-13T04:07:54.980Z,78.53
2018-11-13T04:10:22.977Z,78.69
2018-11-13T04:12:50.552Z,78.56
2018-11-13T04:15:20.287Z,78.59
2018-11-13T04:17:48.573Z,78.35
2018-11-13T04:20:18.349Z,78.65
2018-11-13T04:22:46.172Z,78.06
2018-11-13T04:25:14.694Z,78.05
2018-11-13T04:27:42.279Z,78.09
2018-11-13T04:30:10.421Z,78.07
2018-11-13T04:32:38.195Z,78.08
2018-11-13T04:35:05.824Z,78.59
2018-11-13T04:37:33.504Z,78.07
2018-11-13T04:40:04.071Z,77.70
2018-11-13T04:42:31.639Z,77.68
2018-11-13T04:45:00.913Z,78.43
2018-11-13T04:47:28.515Z,78.47
2018-11-13T04:50:00.077Z,77.95
2018-11-13T04:52:28.052Z,78.37
2018-11-13T04:54:55.592Z,78.43
2018-11-13T04:57:23.117Z,77.94
2018-11-13T04:59:52.411Z,77.96
2018-11-13T05:02:19.950Z,77.96
2018-11-13T05:04:47.519Z,77.74
2018-11-13T05:07:15.040Z,77.89
2018-11-13T05:09:42.564Z,77.89
2018-11-13T05:12:10.129Z,77.86
2018-11-13T05:14:37.716Z,77.85
2018-11-13T05:17:05.282Z,78.02
2018-11-13T05:19:32.873Z,77.43
2018-11-13T05:22:00.773Z,77.69
2018-11-13T05:24:28.374Z,77.86
2018-11-13T05:26:55.910Z,77.95
2018-11-13T05:29:23.760Z,77.78
2018-11-13T05:31:52.548Z,78.15
2018-11-13T05:34:20.076Z,78.49
2018-11-13T05:36:49.312Z,77.95
2018-11-13T05:39:16.860Z,77.98
2018-11-13T05:41:44.451Z,78.43
2018-11-13T05:44:12.449Z,78.70
2018-11-13T05:46:40.406Z,78.24
2018-11-13T05:49:07.942Z,78.24
2018-11-13T05:51:35.809Z,78.10
2018-11-13T05:54:03.627Z,78.27
2018-11-13T05:56:31.314Z,78.51
2018-11-13T05:58:59.173Z,78.51
2018-11-13T06:01:26.724Z,78.23
2018-11-13T06:03:55.400Z,78.45
2018-11-13T06:06:23.463Z,78.43
2018-11-13T06:08:51.120Z,78.23
2018-11-13T06:11:19.581Z,78.74
2018-11-13T06:13:47.674Z,77.92
2018-11-13T06:16:15.755Z,77.97
2018-11-13T06:18:43.325Z,78.23
2018-11-13T06:21:12.027Z,78.32
2018-11-13T06:23:40.085Z,78.85
2018-11-13T06:26:07.672Z,78.40
2018-11-13T06:28:35.603Z,78.53
2018-11-13T06:31:04.304Z,78.77
2018-11-13T06:33:31.853Z,78.56
2018-11-13T06:35:59.811Z,78.87
2018-11-13T06:38:27.376Z,78.90
2018-11-13T06:40:54.992Z,78.00
2018-11-13T06:43:22.810Z,78.64
2018-11-13T06:45:50.368Z,78.02
2018-11-13T06:48:18.938Z,78.75
2018-11-13T06:50:46.827Z,78.27
2018-11-13T06:53:14.354Z,78.20
2018-11-13T06:55:44.757Z,77.95
2018-11-13T06:58:12.716Z,77.94
2018-11-13T07:00:40.272Z,78.30
2018-11-13T07:03:07.837Z,78.31
2018-11-13T07:05:36.920Z,77.59
2018-11-13T07:08:04.539Z,77.77
2018-11-13T07:10:32.146Z,77.67
2018-11-13T07:13:00.213Z,77.47
2018-11-13T07:15:29.031Z,77.54
2018-11-13T07:17:58.507Z,77.29
2018-11-13T07:20:27.601Z,77.57
2018-11-13T07:22:55.172Z,76.98
2018-11-13T07:25:22.894Z,77.27
2018-11-13T07:27:54.704Z,77.51
2018-11-13T07:30:26.495Z,76.93
2018-11-13T07:32:54.355Z,77.73
2018-11-13T07:35:22.641Z,76.98
2018-11-13T07:37:52.158Z,77.84
2018-11-13T07:40:21.166Z,77.10
2018-11-13T07:42:48.813Z,77.75
2018-11-13T07:45:16.617Z,77.45
2018-11-13T07:47:45.857Z,77.33
2018-11-13T07:50:16.894Z,77.44
2018-11-13T07:52:45.038Z,76.98
2018-11-13T07:55:13.599Z,77.16
2018-11-13T07:57:42.776Z,77.32
2018-11-13T08:00:11.966Z,76.61
2018-11-13T08:02:40.235Z,76.78
2018-11-13T08:05:07.807Z,75.82
2018-11-13T08:07:36.198Z,75.40
2018-11-13T08:10:04.253Z,75.35
2018-11-13T08:12:31.823Z,75.60
2018-11-13T08:14:59.716Z,75.17
2018-11-13T08:17:27.244Z,74.50
2018-11-13T08:19:55.539Z,74.09
2018-11-13T08:22:23.896Z,74.24
2018-11-13T08:24:51.491Z,73.52
2018-11-13T08:27:19.877Z,73.69
2018-11-13T08:29:47.711Z,72.90
2018-11-13T08:32:15.297Z,72.78
2018-11-13T08:34:42.894Z,71.89
2018-11-13T08:37:12.217Z,72.59
2018-11-13T08:39:39.830Z,72.34
2018-11-13T08:42:07.421Z,72.17
2018-11-13T08:44:36.364Z,72.17
2018-11-13T08:47:05.411Z,72.03
2018-11-13T08:49:35.012Z,71.59
2018-11-13T08:52:03.068Z,71.64
2018-11-13T08:54:30.648Z,71.84
2018-11-13T08:56:58.197Z,72.29
2018-11-13T08:59:26.918Z,72.54
2018-11-13T09:01:54.507Z,72.74
2018-11-13T09:04:22.056Z,72.30
2018-11-13T09:06:50.000Z,73.02
2018-11-13T09:09:17.585Z,72.67
2018-11-13T09:11:45.996Z,72.70
2018-11-13T09:14:13.812Z,72.20
2018-11-13T09:16:43.712Z,72.38
2018-11-13T09:19:11.422Z,71.77
2018-11-13T09:21:43.538Z,71.89
2018-11-13T09:24:11.151Z,71.38
2018-11-13T09:26:39.425Z,71.17
2018-11-13T09:29:07.681Z,70.74
2018-11-13T09:31:36.748Z,71.06
2018-11-13T09:34:04.359Z,70.14
2018-11-13T09:36:32.451Z,69.22
2018-11-13T09:39:00.012Z,69.24
2018-11-13T09:41:27.556Z,68.81
2018-11-13T09:43:55.579Z,67.11
2018-11-13T09:46:23.197Z,66.88
2018-11-13T09:48:50.746Z,66.90
2018-11-13T09:51:19.996Z,67.40
2018-11-13T09:53:48.377Z,67.33
2018-11-13T09:56:15.945Z,67.79
2018-11-13T09:58:45.789Z,68.78
2018-11-13T10:01:14.380Z,69.03
2018-11-13T10:03:43.906Z,68.65
2018-11-13T10:06:11.316Z,69.37
2018-11-13T10:08:38.979Z,69.17
2018-11-13T10:11:07.148Z,68.86
2018-11-13T10:13:35.296Z,69.00
2018-11-13T10:16:03.609Z,69.01
2018-11-13T10:18:32.193Z,68.42
2018-11-13T10:21:00.122Z,68.55
2018-11-13T10:23:27.700Z,67.91
2018-11-13T10:25:55.528Z,68.27
2018-11-13T10:28:23.592Z,68.28
2018-11-13T10:30:51.196Z,68.50
2018-11-13T10:33:18.788Z,67.98
2018-11-13T10:35:46.713Z,68.33
2018-11-13T10:38:14.263Z,67.33
2018-11-13T10:40:41.978Z,67.57
2018-11-13T10:43:10.935Z,67.21
2018-11-13T10:45:38.505Z,67.37
2018-11-13T10:48:10.755Z,66.79
2018-11-13T10:50:38.679Z,66.43
2018-11-13T10:53:07.356Z,66.66
2018-11-13T10:55:36.075Z,65.85
2018-11-13T10:58:05.312Z,65.12
2018-11-13T11:00:37.959Z,65.44
2018-11-13T11:03:10.485Z,65.07
2018-11-13T11:05:38.349Z,65.25
2018-11-13T11:08:05.997Z,66.01
2018-11-13T11:10:33.580Z,65.89
2018-11-13T11:13:01.850Z,65.85
2018-11-13T11:15:29.350Z,66.09
2018-11-13T11:17:58.144Z,64.93
2018-11-13T11:20:26.428Z,62.84
2018-11-13T11:22:55.183Z,62.75
2018-11-13T11:25:22.835Z,62.72
2018-11-13T11:27:52.581Z,64.08
2018-11-13T11:30:20.208Z,64.97
2018-11-13T11:32:47.759Z,65.05
2018-11-13T11:35:15.795Z,65.26
2018-11-13T11:37:43.416Z,66.21
2018-11-13T11:40:12.281Z,66.17
2018-11-13T11:42:40.295Z,66.25
2018-11-13T11:45:09.119Z,66.21
2018-11-13T11:47:39.741Z,66.43
2018-11-13T11:50:11.970Z,66.48
2018-11-13T11:52:39.603Z,66.20
2018-11-13T11:55:07.173Z,65.92
2018-11-13T11:57:34.734Z,66.34
2018-11-13T12:00:03.243Z,66.11
2018-11-13T12:02:31.166Z,66.28
2018-11-13T12:04:59.519Z,65.36
2018-11-13T12:07:27.099Z,65.39
2018-11-13T12:09:55.183Z,64.75
2018-11-13T12:12:22.789Z,64.84
2018-11-13T12:14:50.394Z,64.55
2018-11-13T12:17:19.326Z,64.46
2018-11-13T12:19:46.885Z,63.77
2018-11-13T12:22:14.561Z,63.89
2018-11-13T12:24:42.637Z,64.50
2018-11-13T12:27:11.475Z,64.37
2018-11-13T12:29:39.677Z,64.25
2018-11-13T12:32:08.692Z,64.10
2018-11-13T12:34:36.263Z,64.15
2018-11-13T12:37:03.904Z,63.32
2018-11-13T12:39:31.820Z,63.63
2018-11-13T12:41:59.418Z,63.31
2018-11-13T12:44:26.960Z,62.80
2018-11-13T12:46:55.897Z,63.48
2018-11-13T12:49:22.703Z,63.15
2018-11-13T12:51:55.243Z,63.64
2018-11-13T12:54:23.119Z,63.02
2018-11-13T12:56:50.670Z,63.62
2018-11-13T12:59:20.711Z,63.28
2018-11-13T13:01:48.937Z,63.80
2018-11-13T13:04:17.437Z,63.12
2018-11-13T13:06:44.990Z,63.06
2018-11-13T13:09:12.974Z,64.14
2018-11-13T13:11:40.637Z,64.12
2018-11-13T13:14:13.153Z,63.75
2018-11-13T13:16:41.830Z,63.50
2018-11-13T13:19:10.353Z,63.80
2018-11-13T13:21:38.746Z,64.36
2018-11-13T13:24:09.421Z,63.22
2018-11-13T13:26:37.353Z,63.52
2018-11-13T13:29:04.906Z,62.69
2018-11-13T13:31:35.428Z,63.27
2018-11-13T13:34:03.792Z,62.71
2018-11-13T13:36:32.459Z,62.30
2018-11-13T13:39:00.454Z,62.73
2018-11-13T13:41:28.040Z,61.93
2018-11-13T13:43:55.607Z,62.50
2018-11-13T13:46:23.516Z,62.18
2018-11-13T13:48:51.102Z,63.38
2018-11-13T13:51:20.292Z,63.14
2018-11-13T13:53:48.536Z,63.39
2018-11-13T13:56:17.658Z,63.71
2018-11-13T13:58:46.449Z,63.23
2018-11-13T14:01:15.449Z,63.59
2018-11-13T14:03:44.364Z,64.44
2018-11-13T14:06:12.277Z,64.37
2018-11-13T14:08:41.249Z,63.66
2018-11-13T14:13:42.821Z,64.28
2018-11-13T14:16:12.505Z,64.52
2018-11-13T14:18:45.586Z,64.02
2018-11-13T14:21:13.484Z,63.68
2018-11-13T14:23:41.065Z,63.75
2018-11-13T14:26:09.284Z,63.89
2018-11-13T14:28:38.184Z,64.31
2018-11-13T14:31:07.336Z,63.77
2018-11-13T14:33:37.241Z,64.42
2018-11-13T14:36:06.296Z,63.80
2018-11-13T14:38:33.866Z,64.68
2018-11-13T14:41:01.716Z,64.70
2018-11-13T14:43:29.268Z,63.90
2018-11-13T14:45:59.959Z,64.73
2018-11-13T14:48:27.955Z,64.01
2018-11-13T14:50:56.335Z,64.65
2018-11-13T14:53:25.109Z,64.80
2018-11-13T14:55:55.310Z,65.04
2018-11-13T14:58:25.836Z,64.82
2018-11-13T15:00:54.708Z,64.50
2018-11-13T15:03:22.727Z,65.37
2018-11-13T15:05:50.291Z,65.68
2018-11-13T15:08:17.876Z,65.61
2018-11-13T15:10:53.305Z,65.37
2018-11-13T15:13:21.709Z,65.73
2018-11-13T15:15:49.562Z,66.29
2018-11-13T15:18:17.238Z,66.11
2018-11-13T15:20:46.044Z,66.47
2018-11-13T15:23:14.487Z,66.83
2018-11-13T15:25:43.342Z,66.78
2018-11-13T15:28:11.380Z,66.60
2018-11-13T15:30:39.356Z,67.17
2018-11-13T15:33:06.904Z,67.20
2018-11-13T15:35:34.431Z,66.51
2018-11-13T15:38:02.920Z,67.37
2018-11-13T15:40:31.182Z,66.79
2018-11-13T15:42:59.328Z,66.86
2018-11-13T15:45:27.969Z,67.64
2018-11-13T15:47:56.624Z,66.92
2018-11-13T15:50:27.450Z,67.33
2018-11-13T15:52:56.324Z,67.71
2018-11-13T15:55:24.517Z,67.01
2018-11-13T15:57:52.269Z,67.50
2018-11-13T16:00:22.448Z,67.41
2018-11-13T16:02:49.972Z,67.44
2018-11-13T16:05:18.312Z,67.36
2018-11-13T16:07:46.308Z,67.57
2018-11-13T16:10:14.708Z,67.82
2018-11-13T16:12:42.284Z,67.11
2018-11-13T16:15:16.740Z,67.62
2018-11-13T16:17:44.308Z,67.26
2018-11-13T16:20:15.205Z,67.35
2018-11-13T16:22:44.380Z,67.32
2018-11-13T16:25:16.672Z,67.65
2018-11-13T16:27:44.224Z,68.15
2018-11-13T16:30:13.395Z,67.47
2018-11-13T16:32:43.471Z,67.80
2018-11-13T16:35:12.160Z,67.63
2018-11-13T16:37:43.404Z,68.18
2018-11-13T16:40:11.585Z,68.38
2018-11-13T16:42:39.844Z,67.83
2018-11-13T16:45:07.697Z,68.32
2018-11-13T16:47:35.252Z,68.42
2018-11-13T16:50:03.665Z,67.50
2018-11-13T16:52:32.377Z,67.66
2018-11-13T16:55:01.472Z,67.77
2018-11-13T16:57:33.347Z,68.00
2018-11-13T17:00:01.309Z,67.96
2018-11-13T17:02:29.739Z,68.14
2018-11-13T17:05:00.178Z,67.68
2018-11-13T17:07:29.572Z,68.10
2018-11-13T17:09:58.270Z,68.53
2018-11-13T17:12:27.280Z,68.64
2018-11-13T17:14:59.185Z,68.18
2018-11-13T17:17:27.935Z,68.38
2018-11-13T17:19:56.382Z,68.79
2018-11-13T17:22:25.290Z,68.67
2018-11-13T17:24:53.457Z,68.53
2018-11-13T17:27:22.442Z,68.83
2018-11-13T17:29:50.415Z,69.43
2018-11-13T17:32:17.948Z,68.99
2018-11-13T17:34:45.516Z,68.97
2018-11-13T17:37:13.375Z,69.33
2018-11-13T17:39:40.949Z,69.58
2018-11-13T17:42:08.473Z,69.56
2018-11-13T17:44:38.694Z,70.03
2018-11-13T17:47:07.956Z,69.71
2018-11-13T17:49:37.139Z,69.73
2018-11-13T17:52:04.716Z,69.58
2018-11-13T17:54:33.084Z,69.75
2018-11-13T17:57:00.618Z,70.57
2018-11-13T17:59:28.674Z,70.12
2018-11-13T18:01:57.764Z,70.44
2018-11-13T18:04:25.665Z,70.50
2018-11-13T18:06:53.701Z,70.69
2018-11-13T18:09:21.754Z,70.28
2018-11-13T18:11:51.460Z,70.84
2018-11-13T18:14:19.983Z,70.39
2018-11-13T18:16:48.040Z,70.26
2018-11-13T18:19:16.219Z,70.82
2018-11-13T18:21:47.871Z,70.88
2018-11-13T18:24:15.613Z,71.34
2018-11-13T18:26:43.172Z,70.91
2018-11-13T18:29:12.644Z,70.58
2018-11-13T18:31:43.611Z,71.30
2018-11-13T18:34:11.839Z,71.20
2018-11-13T18:36:41.260Z,71.00
2018-11-13T18:39:09.277Z,70.80
2018-11-13T18:41:38.176Z,71.34
2018-11-13T18:44:08.859Z,71.40
2018-11-13T18:46:36.385Z,71.44
2018-11-13T18:49:05.833Z,71.26
2018-11-13T18:51:37.212Z,70.97
2018-11-13T18:54:08.187Z,71.79
2018-11-13T18:56:36.924Z,71.71
2018-11-13T18:59:04.577Z,71.36
2018-11-13T19:01:32.231Z,71.44
2018-11-13T19:04:01.989Z,71.82
2018-11-13T19:06:29.540Z,71.91
2018-11-13T19:08:57.320Z,71.15
2018-11-13T19:11:27.364Z,71.91
2018-11-13T19:13:55.938Z,71.51
2018-11-13T19:16:24.328Z,71.51
2018-11-13T19:18:52.637Z,71.87
2018-11-13T19:21:20.108Z,71.77
2018-11-13T19:23:50.774Z,72.05
2018-11-13T19:26:21.042Z,71.31
2018-11-13T19:28:49.453Z,71.57
2018-11-13T19:31:17.972Z,72.35
2018-11-13T19:33:46.630Z,71.75
2018-11-13T19:36:16.095Z,72.07
2018-11-13T19:38:49.310Z,72.24
2018-11-13T19:41:19.401Z,72.28
2018-11-13T19:43:48.113Z,72.46
2018-11-13T19:46:17.265Z,71.95
2018-11-13T19:48:46.861Z,72.37
2018-11-13T19:51:15.234Z,72.25
2018-11-13T19:53:42.800Z,72.03
2018-11-13T19:56:11.363Z,71.97
2018-11-13T19:58:38.907Z,72.24
2018-11-13T20:01:06.475Z,71.64
2018-11-13T20:03:40.516Z,71.78
2018-11-13T20:06:12.169Z,72.08
2018-11-13T20:08:40.049Z,72.36
2018-11-13T20:11:09.426Z,72.12
2018-11-13T20:13:38.305Z,72.21
2018-11-13T20:16:07.781Z,72.08
2018-11-13T20:18:35.364Z,72.12
2018-11-13T20:21:04.227Z,72.67
2018-11-13T20:23:33.225Z,72.82
2018-11-13T20:26:02.282Z,72.64
2018-11-13T20:28:31.357Z,72.87
2018-11-13T20:31:02.754Z,72.62
2018-11-13T20:33:30.515Z,72.34
2018-11-13T20:35:59.585Z,72.69
2018-11-13T20:38:29.210Z,72.70
2018-11-13T20:40:57.791Z,72.32
2018-11-13T20:43:28.964Z,72.98
2018-11-13T20:45:56.696Z,72.15
2018-11-13T20:48:27.757Z,72.44
2018-11-13T20:50:55.300Z,72.46
2018-11-13T20:53:23.169Z,72.70
2018-11-13T20:55:51.384Z,72.04
2018-11-13T20:58:18.938Z,72.87
2018-11-13T21:00:46.798Z,72.68
2018-11-13T21:03:17.330Z,73.01
2018-11-13T21:05:47.099Z,73.24
2018-11-13T21:08:15.648Z,73.40
2018-11-13T21:10:45.344Z,72.58
2018-11-13T21:13:12.891Z,72.96
2018-11-13T21:15:40.732Z,73.29
2018-11-13T21:18:08.328Z,73.31
2018-11-13T21:20:37.452Z,73.60
2018-11-13T21:23:05.595Z,73.33
2018-11-13T21:25:33.117Z,73.60
2018-11-13T21:28:01.936Z,73.38
2018-11-13T21:30:29.875Z,73.36
2018-11-13T21:32:57.621Z,73.16
2018-11-13T21:35:25.188Z,73.26
2018-11-13T21:37:54.513Z,72.78
2018-11-13T21:40:24.392Z,73.45
2018-11-13T21:42:52.675Z,72.98
2018-11-13T21:45:21.676Z,73.41
2018-11-13T21:47:49.259Z,73.58
2018-11-13T21:50:18.126Z,73.10
2018-11-13T21:52:47.750Z,73.81
2018-11-13T21:55:15.739Z,73.23
2018-11-13T21:57:44.436Z,73.21
2018-11-13T22:00:12.386Z,73.67
2018-11-13T22:02:39.910Z,73.69
2018-11-13T22:05:07.420Z,73.97
2018-11-13T22:07:35.311Z,73.23
2018-11-13T22:10:03.603Z,73.30
2018-11-13T22:12:31.284Z,73.08
2018-11-13T22:14:58.886Z,73.23
2018-11-13T22:17:26.818Z,73.06
2018-11-13T22:19:54.329Z,73.38
2018-11-13T22:22:21.837Z,73.59
2018-11-13T22:24:49.768Z,73.80
2018-11-13T22:27:17.475Z,73.87
2018-11-13T22:29:45.549Z,73.85
2018-11-13T22:32:14.347Z,73.91
2018-11-13T22:34:42.347Z,73.79
2018-11-13T22:37:09.846Z,73.90
2018-11-13T22:39:37.435Z,73.64
2018-11-13T22:42:05.496Z,74.18
2018-11-13T22:44:32.985Z,74.20
2018-11-13T22:47:00.523Z,74.28
2018-11-13T22:49:28.012Z,74.22
2018-11-13T22:51:57.059Z,74.29
2018-11-13T22:54:24.525Z,74.05
2018-11-13T22:56:52.000Z,74.22
2018-11-13T22:59:19.911Z,74.09
2018-11-13T23:01:47.525Z,74.33
2018-11-13T23:04:15.021Z,74.96
2018-11-13T23:06:42.528Z,74.63
2018-11-13T23:09:13.510Z,74.43
2018-11-13T23:11:42.464Z,74.46
2018-11-13T23:14:09.977Z,74.72
2018-11-13T23:16:37.827Z,74.32
2018-11-13T23:19:05.304Z,74.07
2018-11-13T23:21:32.792Z,74.26
2018-11-13T23:24:00.265Z,74.16
2018-11-13T23:26:28.122Z,74.30
2018-11-13T23:28:55.606Z,74.72
2018-11-13T23:31:23.106Z,75.06
2018-11-13T23:36:23.833Z,75.15
2018-11-13T23:38:51.806Z,74.66
2018-11-13T23:41:19.273Z,74.48
2018-11-13T23:43:49.736Z,75.44
2018-11-13T23:46:17.576Z,74.75
2018-11-13T23:48:47.220Z,75.14
2018-11-13T23:51:15.381Z,75.44
2018-11-13T23:53:44.049Z,75.59
2018-11-13T23:56:11.794Z,75.71
2018-11-13T23:58:39.301Z,75.36
